createdAt,value
2023-02-05T00:00:52.939Z,100788.91
2023-02-05T00:03:24.484Z,100789.75
2023-02-05T00:05:52.560Z,100792.13
2023-02-05T00:08:20.727Z,100791.25
2023-02-05T00:10:53.062Z,100794.69
2023-02-05T00:13:21.723Z,100791.16
2023-02-05T00:15:49.788Z,100788.59
2023-02-05T00:18:18.342Z,100783.31
2023-02-05T00:20:46.345Z,100779.94
2023-02-05T00:23:14.968Z,100791.16
2023-02-05T00:25:44.637Z,100782.38
2023-02-05T00:28:13.031Z,100792.25
2023-02-05T00:30:42.460Z,100789.78
2023-02-05T00:33:10.714Z,100787.22
2023-02-05T00:35:39.132Z,100789.69
2023-02-05T00:38:08.326Z,100790.53
2023-02-05T00:40:36.841Z,100798.25
2023-02-05T00:43:04.701Z,100793.09
2023-02-05T00:45:35.966Z,100802.69
2023-02-05T00:48:07.497Z,100806.19
2023-02-05T00:50:36.215Z,100800.84
2023-02-05T00:53:04.130Z,100801.69
2023-02-05T00:55:32.404Z,100808.00
2023-02-05T00:58:01.718Z,100796.47
2023-02-05T01:00:30.029Z,100804.47
2023-02-05T01:02:58.387Z,100800.84
2023-02-05T01:05:26.668Z,100798.09
2023-02-05T01:07:57.936Z,100802.47
2023-02-05T01:10:26.794Z,100800.63
2023-02-05T01:12:54.965Z,100812.00
2023-02-05T01:15:23.375Z,100806.63
2023-02-05T01:17:51.946Z,100806.56
2023-02-05T01:20:20.741Z,100812.84
2023-02-05T01:22:49.849Z,100809.22
2023-02-05T01:25:19.410Z,100807.56
2023-02-05T01:27:47.692Z,100814.13
2023-02-05T01:30:17.482Z,100809.81
2023-02-05T01:32:46.592Z,100808.84
2023-02-05T01:35:16.228Z,100809.81
2023-02-05T01:37:44.780Z,100811.59
2023-02-05T01:40:17.177Z,100819.44
2023-02-05T01:42:51.215Z,100816.13
2023-02-05T01:45:22.614Z,100815.91
2023-02-05T01:48:04.456Z,100821.34
2023-02-05T01:50:41.402Z,100813.47
2023-02-05T01:53:13.652Z,100814.25
2023-02-05T01:55:58.368Z,100817.84
2023-02-05T01:58:30.348Z,100820.44
2023-02-05T02:00:58.772Z,100824.13
2023-02-05T02:03:29.151Z,100825.91
2023-02-05T02:05:58.000Z,100826.63
2023-02-05T02:08:26.597Z,100827.56
2023-02-05T02:10:56.777Z,100824.84
2023-02-05T02:13:26.633Z,100824.84
2023-02-05T02:15:54.939Z,100826.50
2023-02-05T02:18:27.935Z,100829.06
2023-02-05T02:21:07.951Z,100826.44
2023-02-05T02:23:58.662Z,100830.13
2023-02-05T02:27:05.766Z,100830.28
2023-02-05T02:29:41.557Z,100835.50
2023-02-05T02:32:22.048Z,100836.28
2023-02-05T02:34:54.791Z,100834.53
2023-02-05T02:37:36.388Z,100829.34
2023-02-05T02:40:12.562Z,100833.84
2023-02-05T02:42:44.446Z,100834.63
2023-02-05T02:45:13.687Z,100845.22
2023-02-05T02:47:47.146Z,100843.50
2023-02-05T02:50:20.638Z,100837.28
2023-02-05T02:52:50.332Z,100842.69
2023-02-05T02:55:20.664Z,100840.34
2023-02-05T02:57:52.243Z,100835.00
2023-02-05T03:00:25.671Z,100843.84
2023-02-05T03:02:56.481Z,100843.09
2023-02-05T03:05:25.803Z,100836.88
2023-02-05T03:07:58.160Z,100846.56
2023-02-05T03:10:35.197Z,100847.53
2023-02-05T03:13:05.431Z,100844.88
2023-02-05T03:15:33.833Z,100848.34
2023-02-05T03:18:04.947Z,100847.66
2023-02-05T03:20:42.126Z,100856.50
2023-02-05T03:23:10.326Z,100857.56
2023-02-05T03:25:38.841Z,100859.38
2023-02-05T03:28:07.709Z,100868.16
2023-02-05T03:31:04.824Z,100867.28
2023-02-05T03:33:45.045Z,100866.44
2023-02-05T03:36:26.225Z,100868.28
2023-02-05T03:39:02.700Z,100864.72
2023-02-05T03:41:50.752Z,100862.84
2023-02-05T03:45:13.805Z,100868.22
2023-02-05T03:48:12.564Z,100865.53
2023-02-05T03:50:56.095Z,100879.66
2023-02-05T03:53:48.007Z,100877.06
2023-02-05T03:56:26.938Z,100878.88
2023-02-05T03:58:57.540Z,100876.16
2023-02-05T04:01:26.690Z,100877.06
2023-02-05T04:03:57.501Z,100877.19
2023-02-05T04:06:25.289Z,100871.84
2023-02-05T04:08:53.284Z,100870.13
2023-02-05T04:11:22.965Z,100884.28
2023-02-05T04:13:52.179Z,100884.28
2023-02-05T04:16:20.262Z,100881.50
2023-02-05T04:18:48.446Z,100884.13
2023-02-05T04:21:16.378Z,100903.44
2023-02-05T04:23:44.583Z,100897.41
2023-02-05T04:26:12.978Z,100894.84
2023-02-05T04:28:41.000Z,100888.06
2023-02-05T04:31:10.010Z,100893.31
2023-02-05T04:33:40.599Z,100902.19
2023-02-05T04:36:09.556Z,100890.94
2023-02-05T04:38:38.378Z,100900.66
2023-02-05T04:41:06.828Z,100900.72
2023-02-05T04:43:35.399Z,100896.41
2023-02-05T04:46:10.329Z,100905.13
2023-02-05T04:48:39.351Z,100909.50
2023-02-05T04:51:11.981Z,100910.44
2023-02-05T04:53:40.809Z,100914.75
2023-02-05T04:56:14.571Z,100927.84
2023-02-05T04:58:43.610Z,100919.97
2023-02-05T05:01:16.206Z,100923.53
2023-02-05T05:03:46.125Z,100934.03
2023-02-05T05:06:14.723Z,100934.19
2023-02-05T05:08:42.996Z,100934.09
2023-02-05T05:11:19.580Z,100938.50
2023-02-05T05:13:50.075Z,100937.72
2023-02-05T05:16:19.069Z,100943.91
2023-02-05T05:18:47.776Z,100945.56
2023-02-05T05:21:16.946Z,100951.69
2023-02-05T05:23:45.321Z,100939.31
2023-02-05T05:26:13.908Z,100946.28
2023-02-05T05:28:41.763Z,100949.78
2023-02-05T05:31:19.990Z,100950.63
2023-02-05T05:33:48.756Z,100956.84
2023-02-05T05:36:16.896Z,100959.66
2023-02-05T05:38:45.071Z,100957.88
2023-02-05T05:41:40.325Z,100961.34
2023-02-05T05:44:09.034Z,100962.13
2023-02-05T05:46:37.306Z,100966.44
2023-02-05T05:49:05.751Z,100968.00
2023-02-05T05:51:34.276Z,100967.81
2023-02-05T05:54:02.393Z,100971.28
2023-02-05T05:56:31.123Z,100966.78
2023-02-05T05:58:59.934Z,100972.88
2023-02-05T06:01:28.584Z,100964.06
2023-02-05T06:03:56.676Z,100967.53
2023-02-05T06:06:24.774Z,100980.81
2023-02-05T06:08:52.871Z,100971.09
2023-02-05T06:11:20.716Z,100980.81
2023-02-05T06:13:50.058Z,100976.38
2023-02-05T06:16:18.346Z,100985.28
2023-02-05T06:18:48.512Z,100994.94
2023-02-05T06:21:17.014Z,100983.50
2023-02-05T06:23:46.236Z,100990.69
2023-02-05T06:26:15.328Z,100998.69
2023-02-05T06:28:43.617Z,101005.63
2023-02-05T06:31:12.038Z,101008.28
2023-02-05T06:33:40.265Z,101002.00
2023-02-05T06:36:08.861Z,101013.38
2023-02-05T06:38:37.099Z,101019.56
2023-02-05T06:41:05.140Z,101015.88
2023-02-05T06:43:33.329Z,101010.56
2023-02-05T06:46:21.713Z,101013.97
2023-02-05T06:48:49.718Z,101028.84
2023-02-05T06:51:17.902Z,101015.63
2023-02-05T06:53:47.147Z,101031.38
2023-02-05T06:56:15.481Z,101023.34
2023-02-05T06:58:43.617Z,101025.84
2023-02-05T07:01:11.841Z,101027.63
2023-02-05T07:03:39.871Z,101024.25
2023-02-05T07:06:08.424Z,101025.59
2023-02-05T07:08:36.677Z,101032.50
2023-02-05T07:11:05.561Z,101033.31
2023-02-05T07:13:33.788Z,101039.47
2023-02-05T07:16:06.145Z,101034.66
2023-02-05T07:18:34.809Z,101042.41
2023-02-05T07:21:08.013Z,101043.22
2023-02-05T07:23:36.884Z,101038.75
2023-02-05T07:26:15.709Z,101040.69
2023-02-05T07:28:44.866Z,101043.31
2023-02-05T07:31:18.204Z,101036.13
2023-02-05T07:33:48.033Z,101036.75
2023-02-05T07:36:18.072Z,101038.41
2023-02-05T07:38:47.698Z,101036.41
2023-02-05T07:41:18.714Z,101037.91
2023-02-05T07:43:46.892Z,101036.75
2023-02-05T07:46:15.727Z,101036.72
2023-02-05T07:48:44.280Z,101032.91
2023-02-05T07:51:23.240Z,101032.81
2023-02-05T07:53:52.722Z,101041.59
2023-02-05T07:56:21.980Z,101034.56
2023-02-05T07:58:50.077Z,101033.69
2023-02-05T08:01:18.272Z,101038.03
2023-02-05T08:03:46.930Z,101042.50
2023-02-05T08:06:16.261Z,101050.00
2023-02-05T08:08:44.719Z,101045.50
2023-02-05T08:11:17.341Z,101046.16
2023-02-05T08:13:49.027Z,101046.16
2023-02-05T08:16:17.941Z,101046.47
2023-02-05T08:18:50.860Z,101045.41
2023-02-05T08:21:22.158Z,101049.38
2023-02-05T08:23:50.600Z,101050.00
2023-02-05T08:26:19.287Z,101037.75
2023-02-05T08:28:50.073Z,101055.75
2023-02-05T08:31:19.254Z,101055.69
2023-02-05T08:33:48.104Z,101060.63
2023-02-05T08:36:16.868Z,101058.63
2023-02-05T08:38:45.021Z,101058.81
2023-02-05T08:41:13.267Z,101053.56
2023-02-05T08:43:49.132Z,101056.06
2023-02-05T08:46:20.539Z,101054.88
2023-02-05T08:48:49.305Z,101051.00
2023-02-05T08:51:19.757Z,101055.41
2023-02-05T08:53:47.707Z,101062.31
2023-02-05T08:56:16.974Z,101057.41
2023-02-05T08:58:48.886Z,101062.06
2023-02-05T09:01:17.722Z,101062.06
2023-02-05T09:03:46.204Z,101061.06
2023-02-05T09:06:15.920Z,101059.66
2023-02-05T09:08:44.276Z,101051.63
2023-02-05T09:11:13.750Z,101059.44
2023-02-05T09:13:44.709Z,101058.44
2023-02-05T09:16:15.128Z,101052.00
2023-02-05T09:18:44.036Z,101046.53
2023-02-05T09:21:14.076Z,101056.59
2023-02-05T09:23:42.430Z,101064.28
2023-02-05T09:26:11.492Z,101056.81
2023-02-05T09:28:40.973Z,101064.34
2023-02-05T09:31:16.887Z,101068.66
2023-02-05T09:33:46.592Z,101067.06
2023-02-05T09:36:19.942Z,101067.78
2023-02-05T09:38:48.555Z,101077.16
2023-02-05T09:41:29.233Z,101069.41
2023-02-05T09:44:29.744Z,101070.94
2023-02-05T09:47:25.079Z,101070.47
2023-02-05T09:50:21.875Z,101077.81
2023-02-05T09:52:51.728Z,101065.84
2023-02-05T09:55:35.153Z,101063.28
2023-02-05T09:58:16.027Z,101062.47
2023-02-05T10:00:50.095Z,101052.28
2023-02-05T10:03:30.736Z,101060.88
2023-02-05T10:06:08.095Z,101052.13
2023-02-05T10:09:13.773Z,101054.88
2023-02-05T10:12:03.701Z,101057.56
2023-02-05T10:14:58.221Z,101056.38
2023-02-05T10:17:32.434Z,101054.03
2023-02-05T10:20:26.607Z,101053.50
2023-02-05T10:23:15.983Z,101060.78
2023-02-05T10:25:55.904Z,101059.09
2023-02-05T10:28:36.624Z,101056.94
2023-02-05T10:31:43.918Z,101054.88
2023-02-05T10:34:20.907Z,101058.44
2023-02-05T10:36:52.851Z,101063.16
2023-02-05T10:39:26.629Z,101070.44
2023-02-05T10:42:06.982Z,101056.81
2023-02-05T10:44:43.917Z,101068.53
2023-02-05T10:47:19.113Z,101062.72
2023-02-05T10:49:56.837Z,101072.97
2023-02-05T10:52:24.875Z,101068.00
2023-02-05T10:54:53.215Z,101072.38
2023-02-05T10:57:23.221Z,101073.75
2023-02-05T11:00:00.310Z,101076.50
2023-02-05T11:02:59.332Z,101072.19
2023-02-05T11:05:35.191Z,101076.72
2023-02-05T11:08:04.323Z,101083.13
2023-02-05T11:10:34.995Z,101082.03
2023-02-05T11:13:21.761Z,101081.06
2023-02-05T11:16:01.173Z,101075.63
2023-02-05T11:18:36.619Z,101069.56
2023-02-05T11:21:09.009Z,101079.38
2023-02-05T11:23:41.273Z,101081.97
2023-02-05T11:26:10.622Z,101084.66
2023-02-05T11:28:42.615Z,101078.28
2023-02-05T11:31:21.903Z,101077.31
2023-02-05T11:33:50.677Z,101084.72
2023-02-05T11:36:27.418Z,101091.81
2023-02-05T11:38:59.801Z,101094.34
2023-02-05T11:41:52.222Z,101083.13
2023-02-05T11:44:25.448Z,101094.69
2023-02-05T11:46:58.091Z,101093.72
2023-02-05T11:49:37.728Z,101088.88
2023-02-05T11:52:11.563Z,101097.19
2023-02-05T11:54:46.338Z,101097.13
2023-02-05T11:57:20.362Z,101096.13
2023-02-05T11:59:58.442Z,101097.59
2023-02-05T12:02:33.849Z,101092.00
2023-02-05T12:05:17.210Z,101088.44
2023-02-05T12:07:56.996Z,101091.25
2023-02-05T12:10:38.792Z,101091.78
2023-02-05T12:13:10.732Z,101097.84
2023-02-05T12:16:11.916Z,101097.34
2023-02-05T12:19:15.116Z,101095.84
2023-02-05T12:22:21.344Z,101096.41
2023-02-05T12:25:19.914Z,101106.81
2023-02-05T12:28:01.314Z,101094.75
2023-02-05T12:30:47.792Z,101099.19
2023-02-05T12:33:51.913Z,101102.63
2023-02-05T12:36:29.858Z,101105.81
2023-02-05T12:39:26.498Z,101105.69
2023-02-05T12:41:58.031Z,101104.56
2023-02-05T12:44:46.089Z,101108.59
2023-02-05T12:47:45.612Z,101094.81
2023-02-05T12:50:40.477Z,101105.00
2023-02-05T12:53:08.398Z,101117.38
2023-02-05T12:55:49.164Z,101116.47
2023-02-05T12:58:20.024Z,101110.13
2023-02-05T13:00:56.621Z,101118.47
2023-02-05T13:03:33.982Z,101122.97
2023-02-05T13:06:12.668Z,101123.22
2023-02-05T13:08:51.289Z,101126.00
2023-02-05T13:11:29.163Z,101129.81
2023-02-05T13:14:03.085Z,101137.75
2023-02-05T13:16:46.423Z,101146.03
2023-02-05T13:19:24.084Z,101151.72
2023-02-05T13:22:12.123Z,101156.53
2023-02-05T13:25:17.832Z,101157.50
2023-02-05T13:28:23.389Z,101163.66
2023-02-05T13:30:55.613Z,101163.94
2023-02-05T13:33:23.700Z,101165.63
2023-02-05T13:36:09.962Z,101170.09
2023-02-05T13:38:58.284Z,101168.78
2023-02-05T13:42:00.738Z,101154.75
2023-02-05T13:44:53.366Z,101162.50
2023-02-05T13:47:24.508Z,101165.09
2023-02-05T13:50:11.276Z,101164.28
2023-02-05T13:52:45.343Z,101172.56
2023-02-05T13:55:16.928Z,101175.28
2023-02-05T13:58:11.844Z,101176.09
2023-02-05T14:00:42.543Z,101176.97
2023-02-05T14:03:26.840Z,101170.81
2023-02-05T14:05:55.060Z,101171.75
2023-02-05T14:08:27.569Z,101169.13
2023-02-05T14:11:02.744Z,101180.69
2023-02-05T14:13:34.650Z,101174.66
2023-02-05T14:16:38.121Z,101170.31
2023-02-05T14:19:15.154Z,101180.94
2023-02-05T14:21:46.136Z,101185.44
2023-02-05T14:24:29.114Z,101186.50
2023-02-05T14:27:01.056Z,101181.16
2023-02-05T14:29:43.075Z,101189.00
2023-02-05T14:32:40.168Z,101173.47
2023-02-05T14:35:32.309Z,101172.66
2023-02-05T14:38:03.063Z,101178.88
2023-02-05T14:40:37.372Z,101176.31
2023-02-05T14:43:46.901Z,101172.66
2023-02-05T14:46:33.459Z,101167.53
2023-02-05T14:49:03.571Z,101182.41
2023-02-05T14:51:51.338Z,101194.78
2023-02-05T14:54:25.703Z,101188.56
2023-02-05T14:57:19.969Z,101198.13
2023-02-05T14:59:57.836Z,101189.44
2023-02-05T15:03:03.963Z,101197.25
2023-02-05T15:05:45.919Z,101202.75
2023-02-05T15:08:35.517Z,101205.66
2023-02-05T15:11:42.930Z,101209.94
2023-02-05T15:14:27.360Z,101214.31
2023-02-05T15:17:35.698Z,101207.44
2023-02-05T15:20:34.240Z,101210.94
2023-02-05T15:23:06.302Z,101210.94
2023-02-05T15:25:44.748Z,101200.38
2023-02-05T15:28:33.092Z,101214.47
2023-02-05T15:31:15.144Z,101216.19
2023-02-05T15:33:53.074Z,101227.63
2023-02-05T15:36:27.740Z,101228.50
2023-02-05T15:39:25.203Z,101221.47
2023-02-05T15:41:56.788Z,101226.81
2023-02-05T15:44:30.748Z,101236.59
2023-02-05T15:47:03.708Z,101229.72
2023-02-05T15:49:50.372Z,101234.00
2023-02-05T15:52:22.641Z,101234.94
2023-02-05T15:54:53.551Z,101237.63
2023-02-05T15:57:27.239Z,101241.00
2023-02-05T15:59:56.821Z,101240.09
2023-02-05T16:02:27.729Z,101255.09
2023-02-05T16:05:08.096Z,101236.66
2023-02-05T16:07:41.473Z,101245.38
2023-02-05T16:10:22.524Z,101252.50
2023-02-05T16:13:04.745Z,101251.72
2023-02-05T16:15:40.977Z,101257.78
2023-02-05T16:18:25.581Z,101247.28
2023-02-05T16:20:57.927Z,101248.16
2023-02-05T16:23:30.412Z,101254.41
2023-02-05T16:26:02.643Z,101247.47
2023-02-05T16:29:01.684Z,101267.56
2023-02-05T16:34:18.983Z,101260.69
2023-02-05T16:36:50.591Z,101259.81
2023-02-05T16:39:27.797Z,101256.22
2023-02-05T16:42:07.075Z,101257.38
2023-02-05T16:44:40.880Z,101271.38
2023-02-05T16:47:18.045Z,101266.06
2023-02-05T16:49:49.328Z,101263.31
2023-02-05T16:52:25.895Z,101275.56
2023-02-05T16:54:54.327Z,101276.56
2023-02-05T16:57:38.169Z,101282.66
2023-02-05T17:00:19.195Z,101265.03
2023-02-05T17:02:47.891Z,101271.31
2023-02-05T17:05:25.593Z,101267.72
2023-02-05T17:07:58.604Z,101277.38
2023-02-05T17:10:29.235Z,101283.66
2023-02-05T17:13:07.279Z,101283.78
2023-02-05T17:15:42.740Z,101275.81
2023-02-05T17:18:25.462Z,101282.94
2023-02-05T17:21:23.739Z,101290.00
2023-02-05T17:23:53.354Z,101289.06
2023-02-05T17:26:25.401Z,101289.03
2023-02-05T17:28:56.490Z,101302.34
2023-02-05T17:31:26.687Z,101294.47
2023-02-05T17:33:58.971Z,101294.50
2023-02-05T17:36:27.494Z,101305.16
2023-02-05T17:38:55.677Z,101299.97
2023-02-05T17:41:47.058Z,101305.09
2023-02-05T17:44:17.398Z,101314.69
2023-02-05T17:46:46.959Z,101295.31
2023-02-05T17:49:15.237Z,101295.31
2023-02-05T17:51:44.203Z,101314.72
2023-02-05T17:54:23.382Z,101309.59
2023-02-05T17:56:54.574Z,101303.31
2023-02-05T17:59:25.066Z,101308.56
2023-02-05T18:01:53.659Z,101311.16
2023-02-05T18:04:21.878Z,101309.28
2023-02-05T18:06:50.478Z,101312.16
2023-02-05T18:09:20.966Z,101315.59
2023-02-05T18:11:51.708Z,101324.56
2023-02-05T18:14:22.172Z,101306.97
2023-02-05T18:16:50.592Z,101309.69
2023-02-05T18:19:18.792Z,101316.69
2023-02-05T18:21:48.419Z,101308.75
2023-02-05T18:24:19.269Z,101313.94
2023-02-05T18:26:52.731Z,101313.03
2023-02-05T18:29:21.807Z,101329.66
2023-02-05T18:31:49.842Z,101335.88
2023-02-05T18:34:18.103Z,101328.00
2023-02-05T18:36:46.818Z,101338.56
2023-02-05T18:39:15.102Z,101334.19
2023-02-05T18:41:43.043Z,101326.22
2023-02-05T18:44:11.745Z,101335.03
2023-02-05T18:46:41.307Z,101328.06
2023-02-05T18:49:12.366Z,101328.03
2023-02-05T18:51:44.562Z,101342.91
2023-02-05T18:54:15.012Z,101344.78
2023-02-05T18:56:43.818Z,101329.88
2023-02-05T18:59:16.076Z,101341.31
2023-02-05T19:01:45.879Z,101357.25
2023-02-05T19:04:15.878Z,101339.66
2023-02-05T19:06:49.370Z,101348.53
2023-02-05T19:09:17.831Z,101343.97
2023-02-05T19:11:47.148Z,101336.94
2023-02-05T19:14:17.526Z,101345.66
2023-02-05T19:16:47.672Z,101355.41
2023-02-05T19:19:18.058Z,101336.03
2023-02-05T19:21:48.003Z,101339.53
2023-02-05T19:24:18.836Z,101348.38
2023-02-05T19:26:49.994Z,101347.47
2023-02-05T19:29:22.818Z,101348.38
2023-02-05T19:31:53.740Z,101354.53
2023-02-05T19:34:25.010Z,101357.97
2023-02-05T19:36:53.228Z,101358.00
2023-02-05T19:39:21.625Z,101356.25
2023-02-05T19:41:52.566Z,101362.34
2023-02-05T19:44:24.163Z,101371.22
2023-02-05T19:46:55.257Z,101358.81
2023-02-05T19:49:23.772Z,101370.16
2023-02-05T19:51:59.831Z,101361.53
2023-02-05T19:54:29.795Z,101366.75
2023-02-05T19:56:58.635Z,101377.41
2023-02-05T19:59:27.912Z,101371.22
2023-02-05T20:01:56.363Z,101388.81
2023-02-05T20:04:29.029Z,101376.50
2023-02-05T20:06:59.702Z,101369.50
2023-02-05T20:09:28.848Z,101370.38
2023-02-05T20:11:59.824Z,101382.78
2023-02-05T20:14:29.912Z,101380.97
2023-02-05T20:16:58.529Z,101391.50
2023-02-05T20:19:27.147Z,101383.69
2023-02-05T20:21:55.261Z,101388.88
2023-02-05T20:24:23.585Z,101387.97
2023-02-05T20:26:59.416Z,101387.09
2023-02-05T20:29:46.421Z,101379.19
2023-02-05T20:32:14.522Z,101380.91
2023-02-05T20:34:48.102Z,101418.94
2023-02-05T20:37:20.355Z,101400.63
2023-02-05T20:39:49.716Z,101411.09
2023-02-05T20:42:17.787Z,101416.53
2023-02-05T20:44:45.911Z,101409.50
2023-02-05T20:47:16.010Z,101410.41
2023-02-05T20:49:44.512Z,101427.97
2023-02-05T20:52:13.333Z,101428.88
2023-02-05T20:54:45.208Z,101427.06
2023-02-05T20:57:13.588Z,101425.31
2023-02-05T20:59:42.395Z,101442.88
2023-02-05T21:02:11.087Z,101446.41
2023-02-05T21:04:40.444Z,101436.75
2023-02-05T21:07:10.696Z,101449.91
2023-02-05T21:09:39.697Z,101453.47
2023-02-05T21:12:08.101Z,101450.88
2023-02-05T21:14:37.588Z,101450.88
2023-02-05T21:17:09.685Z,101447.41
2023-02-05T21:19:39.155Z,101457.06
2023-02-05T21:22:07.358Z,101460.53
2023-02-05T21:24:35.593Z,101451.78
2023-02-05T21:27:04.010Z,101464.97
2023-02-05T21:29:34.656Z,101464.97
2023-02-05T21:32:03.192Z,101464.03
2023-02-05T21:34:31.436Z,101479.94
2023-02-05T21:37:00.329Z,101477.31
2023-02-05T21:39:33.067Z,101470.19
2023-02-05T21:42:01.850Z,101473.63
2023-02-05T21:44:32.923Z,101470.97
2023-02-05T21:47:01.468Z,101463.06
2023-02-05T21:49:30.499Z,101476.25
2023-02-05T21:51:59.176Z,101465.72
2023-02-05T21:54:29.826Z,101476.25
2023-02-05T21:56:58.306Z,101471.94
2023-02-05T21:59:29.184Z,101479.88
2023-02-05T22:01:57.832Z,101472.78
2023-02-05T22:04:26.061Z,101468.44
2023-02-05T22:06:54.813Z,101477.19
2023-02-05T22:09:23.946Z,101470.97
2023-02-05T22:11:52.276Z,101466.59
2023-02-05T22:14:22.637Z,101476.22
2023-02-05T22:16:50.973Z,101474.41
2023-02-05T22:19:20.210Z,101478.78
2023-02-05T22:21:49.056Z,101481.53
2023-02-05T22:24:19.432Z,101481.50
2023-02-05T22:26:48.362Z,101478.84
2023-02-05T22:29:19.495Z,101480.53
2023-02-05T22:31:52.420Z,101476.09
2023-02-05T22:34:21.142Z,101481.38
2023-02-05T22:36:49.251Z,101478.84
2023-02-05T22:39:17.743Z,101477.06
2023-02-05T22:41:45.991Z,101479.78
2023-02-05T22:44:15.198Z,101493.81
2023-02-05T22:46:44.902Z,101492.94
2023-02-05T22:49:15.685Z,101493.03
2023-02-05T22:51:44.697Z,101485.00
2023-02-05T22:54:14.150Z,101499.16
2023-02-05T22:56:45.440Z,101493.03
2023-02-05T22:59:13.878Z,101486.88
2023-02-05T23:01:44.610Z,101490.41
2023-02-05T23:04:12.638Z,101503.63
2023-02-05T23:06:43.228Z,101509.84
2023-02-05T23:09:17.231Z,101499.34
2023-02-05T23:11:49.408Z,101511.72
2023-02-05T23:14:18.671Z,101502.84
2023-02-05T23:16:48.584Z,101505.56
2023-02-05T23:19:22.847Z,101507.34
2023-02-05T23:21:51.129Z,101517.88
2023-02-05T23:24:20.062Z,101520.53
2023-02-05T23:26:51.053Z,101535.50
2023-02-05T23:29:19.226Z,101533.75
2023-02-05T23:31:47.605Z,101533.75
2023-02-05T23:34:15.624Z,101524.06
2023-02-05T23:36:44.227Z,101529.31
2023-02-05T23:39:12.635Z,101539.84
2023-02-05T23:41:44.862Z,101537.22
2023-02-05T23:44:16.490Z,101536.44
2023-02-05T23:46:46.787Z,101539.03
2023-02-05T23:49:22.208Z,101532.00
2023-02-05T23:51:52.342Z,101529.44
2023-02-05T23:54:22.129Z,101528.59
2023-02-05T23:56:50.749Z,101529.44
2023-02-05T23:59:19.196Z,101547.84
